Yorkton Municipal Airport
CYQV : now visible

Airfield :











YOU CAN JOIN US ON...

 
LOGIN :

Register | Disclaimer

   EN    FR    IT 

 









Legend :    VFR   Marginal VFR   IFR   Intensive IFR   Very Intensive IFR
Visi :
Ceiling :
>= 8 km
>= 3000ft
5 to 8 km
1000 to 3000 ft
1500m to 5 km
500 to 1000 ft
800 to 1500m
200 to 500 ft
< 800m
< 200 ft
Symbols :   Thunderstorms  Fog  Heavy snow  Heavy precipitations  Wind > 20 kt






- Airport Elevation : 1635 ft
- IATA code : YQV


CYQV - Yorkton Municipal

CURRENT METAR :
  • 121600Z AUTO 20007KT 170V230 9SM FEW130 19/M05 A3015 RMK SLP218 DENSITY ALT 2200FT

EXPIRED METARs :
  • 121500Z AUTO 19007KT 9SM CLR 18/M05 A3015 RMK SLP220 DENSITY ALT 2100FT
  • 121400Z AUTO 23008KT 9SM CLR 15/M04 A3016 RMK SLP221 DENSITY ALT 1800FT

TAF TAF CYQV
Valid from the 12 at 12:00 until the 13 at 00:00 UTC


121151Z 1212/1224 20008KT P6SM SCT100
BECMG 1217/1219 20012KT
FM122000 22012KT P6SM SCT110
TEMPO 1220/1224 BKN110
BECMG 1222/1224 19008KT RMK FCST BASED ON AUTO OBS. NXT FCST BY 121800Z
CZWG FIR / North America



MET'MAP, your aeronautical weather chart ! - Copyright ORBIFLY December 2007 - Disclaimer

ORBIFLY MET'MAP TEAM :

Programming & Development : Alexandra Zaïnal
Concept & original design : Baudouin d'Aumeries
Assistance for programming : Marc-Olivier Méhu
Technical & hardware support : Manuel Goepfert

Contact : metmap@orbifly.com




SOURCES & CREDITS :

   NOAA       Earth
Advisory